sensor_id;sensor_type;location;lat;lon;timestamp;P1;durP1;ratioP1;P2;durP2;ratioP2
22652;SDS011;11493;43.344;26.226;2023-04-06T00:01:01;9.05;;;8.15;;
22652;SDS011;11493;43.344;26.226;2023-04-06T00:03:28;10.05;;;8.38;;
22652;SDS011;11493;43.344;26.226;2023-04-06T00:05:55;8.80;;;7.93;;
22652;SDS011;11493;43.344;26.226;2023-04-06T00:08:22;8.82;;;8.02;;
22652;SDS011;11493;43.344;26.226;2023-04-06T00:10:50;10.68;;;8.13;;
22652;SDS011;11493;43.344;26.226;2023-04-06T00:13:17;9.82;;;8.63;;
22652;SDS011;11493;43.344;26.226;2023-04-06T00:15:44;10.45;;;8.57;;
22652;SDS011;11493;43.344;26.226;2023-04-06T00:18:11;10.07;;;8.60;;
22652;SDS011;11493;43.344;26.226;2023-04-06T00:20:38;8.85;;;7.95;;
22652;SDS011;11493;43.344;26.226;2023-04-06T00:23:06;13.82;;;9.20;;
22652;SDS011;11493;43.344;26.226;2023-04-06T00:25:33;11.98;;;9.02;;
22652;SDS011;11493;43.344;26.226;2023-04-06T00:28:00;9.10;;;8.27;;
22652;SDS011;11493;43.344;26.226;2023-04-06T00:30:27;9.65;;;8.60;;
22652;SDS011;11493;43.344;26.226;2023-04-06T00:32:54;9.68;;;8.15;;
22652;SDS011;11493;43.344;26.226;2023-04-06T00:35:22;10.20;;;8.50;;
22652;SDS011;11493;43.344;26.226;2023-04-06T00:37:49;12.13;;;9.18;;
22652;SDS011;11493;43.344;26.226;2023-04-06T00:40:16;12.48;;;9.13;;
22652;SDS011;11493;43.344;26.226;2023-04-06T00:42:44;9.32;;;8.30;;
22652;SDS011;11493;43.344;26.226;2023-04-06T00:45:11;9.07;;;8.10;;
22652;SDS011;11493;43.344;26.226;2023-04-06T00:47:38;11.57;;;8.77;;
22652;SDS011;11493;43.344;26.226;2023-04-06T00:50:06;9.45;;;8.52;;
22652;SDS011;11493;43.344;26.226;2023-04-06T00:52:34;9.02;;;8.00;;
22652;SDS011;11493;43.344;26.226;2023-04-06T00:55:03;11.95;;;9.18;;
22652;SDS011;11493;43.344;26.226;2023-04-06T00:57:31;10.10;;;8.38;;
22652;SDS011;11493;43.344;26.226;2023-04-06T00:59:58;10.15;;;8.38;;
22652;SDS011;11493;43.344;26.226;2023-04-06T01:02:25;10.75;;;8.27;;
22652;SDS011;11493;43.344;26.226;2023-04-06T01:04:53;8.80;;;7.93;;
22652;SDS011;11493;43.344;26.226;2023-04-06T01:07:34;10.45;;;9.13;;
22652;SDS011;11493;43.344;26.226;2023-04-06T01:10:09;8.88;;;8.00;;
22652;SDS011;11493;43.344;26.226;2023-04-06T01:12:37;11.95;;;8.75;;
22652;SDS011;11493;43.344;26.226;2023-04-06T01:15:12;8.43;;;7.55;;
22652;SDS011;11493;43.344;26.226;2023-04-06T01:17:42;6.83;;;6.13;;
22652;SDS011;11493;43.344;26.226;2023-04-06T01:20:13;8.80;;;7.90;;
22652;SDS011;11493;43.344;26.226;2023-04-06T01:22:41;8.35;;;7.25;;
22652;SDS011;11493;43.344;26.226;2023-04-06T01:25:10;8.57;;;7.68;;
22652;SDS011;11493;43.344;26.226;2023-04-06T01:27:55;8.75;;;7.85;;
22652;SDS011;11493;43.344;26.226;2023-04-06T01:30:31;8.77;;;7.63;;
22652;SDS011;11493;43.344;26.226;2023-04-06T01:33:04;8.82;;;7.93;;
22652;SDS011;11493;43.344;26.226;2023-04-06T01:35:50;10.93;;;8.05;;
22652;SDS011;11493;43.344;26.226;2023-04-06T01:38:19;8.07;;;7.28;;
22652;SDS011;11493;43.344;26.226;2023-04-06T01:40:47;8.93;;;7.70;;
22652;SDS011;11493;43.344;26.226;2023-04-06T01:43:16;10.43;;;7.80;;
22652;SDS011;11493;43.344;26.226;2023-04-06T01:46:12;7.97;;;7.35;;
22652;SDS011;11493;43.344;26.226;2023-04-06T01:48:42;8.80;;;7.22;;
22652;SDS011;11493;43.344;26.226;2023-04-06T01:51:18;7.68;;;6.95;;
22652;SDS011;11493;43.344;26.226;2023-04-06T01:53:55;9.15;;;8.07;;
22652;SDS011;11493;43.344;26.226;2023-04-06T01:56:29;9.45;;;7.40;;
22652;SDS011;11493;43.344;26.226;2023-04-06T01:59:03;8.80;;;7.55;;
22652;SDS011;11493;43.344;26.226;2023-04-06T02:01:36;9.10;;;7.25;;
22652;SDS011;11493;43.344;26.226;2023-04-06T02:04:03;10.13;;;7.97;;
22652;SDS011;11493;43.344;26.226;2023-04-06T02:06:30;7.88;;;7.07;;
22652;SDS011;11493;43.344;26.226;2023-04-06T02:08:59;8.23;;;7.53;;
22652;SDS011;11493;43.344;26.226;2023-04-06T02:11:27;9.00;;;7.68;;
22652;SDS011;11493;43.344;26.226;2023-04-06T02:13:55;8.70;;;7.63;;
22652;SDS011;11493;43.344;26.226;2023-04-06T02:16:26;8.63;;;7.82;;
22652;SDS011;11493;43.344;26.226;2023-04-06T02:18:53;7.55;;;6.85;;
22652;SDS011;11493;43.344;26.226;2023-04-06T02:21:20;7.90;;;7.10;;
22652;SDS011;11493;43.344;26.226;2023-04-06T02:23:47;7.55;;;6.78;;
22652;SDS011;11493;43.344;26.226;2023-04-06T02:26:16;9.02;;;7.15;;
22652;SDS011;11493;43.344;26.226;2023-04-06T02:28:43;8.57;;;7.75;;
22652;SDS011;11493;43.344;26.226;2023-04-06T02:31:11;9.55;;;7.75;;
22652;SDS011;11493;43.344;26.226;2023-04-06T02:33:38;8.70;;;7.60;;
22652;SDS011;11493;43.344;26.226;2023-04-06T02:36:06;7.97;;;7.15;;
22652;SDS011;11493;43.344;26.226;2023-04-06T02:38:33;9.18;;;7.88;;
22652;SDS011;11493;43.344;26.226;2023-04-06T02:41:01;9.27;;;7.35;;
22652;SDS011;11493;43.344;26.226;2023-04-06T02:43:28;8.68;;;7.75;;
22652;SDS011;11493;43.344;26.226;2023-04-06T02:46:04;7.68;;;6.97;;
22652;SDS011;11493;43.344;26.226;2023-04-06T02:48:36;7.60;;;6.82;;
22652;SDS011;11493;43.344;26.226;2023-04-06T02:51:04;7.57;;;6.85;;
22652;SDS011;11493;43.344;26.226;2023-04-06T02:53:31;8.23;;;7.43;;
22652;SDS011;11493;43.344;26.226;2023-04-06T02:55:58;8.48;;;7.68;;
22652;SDS011;11493;43.344;26.226;2023-04-06T02:58:33;14.57;;;10.30;;
22652;SDS011;11493;43.344;26.226;2023-04-06T03:01:01;12.07;;;9.32;;
22652;SDS011;11493;43.344;26.226;2023-04-06T03:03:28;10.40;;;9.27;;
22652;SDS011;11493;43.344;26.226;2023-04-06T03:05:56;9.43;;;8.40;;
22652;SDS011;11493;43.344;26.226;2023-04-06T03:08:28;8.90;;;8.15;;
22652;SDS011;11493;43.344;26.226;2023-04-06T03:10:55;9.73;;;7.50;;
22652;SDS011;11493;43.344;26.226;2023-04-06T03:13:31;9.15;;;8.25;;
22652;SDS011;11493;43.344;26.226;2023-04-06T03:15:58;9.38;;;7.57;;
22652;SDS011;11493;43.344;26.226;2023-04-06T03:18:26;8.20;;;7.30;;
22652;SDS011;11493;43.344;26.226;2023-04-06T03:20:55;11.50;;;9.60;;
22652;SDS011;11493;43.344;26.226;2023-04-06T03:23:28;15.65;;;11.43;;
22652;SDS011;11493;43.344;26.226;2023-04-06T03:25:58;15.55;;;12.00;;
22652;SDS011;11493;43.344;26.226;2023-04-06T03:28:25;9.13;;;8.23;;
22652;SDS011;11493;43.344;26.226;2023-04-06T03:30:56;9.35;;;8.45;;
22652;SDS011;11493;43.344;26.226;2023-04-06T03:33:41;9.30;;;8.32;;
22652;SDS011;11493;43.344;26.226;2023-04-06T03:36:15;9.98;;;8.50;;
22652;SDS011;11493;43.344;26.226;2023-04-06T03:38:43;10.35;;;8.35;;
22652;SDS011;11493;43.344;26.226;2023-04-06T03:41:12;10.48;;;8.70;;
22652;SDS011;11493;43.344;26.226;2023-04-06T03:46:10;7.68;;;6.97;;
22652;SDS011;11493;43.344;26.226;2023-04-06T03:48:37;8.68;;;7.78;;
22652;SDS011;11493;43.344;26.226;2023-04-06T03:51:05;10.07;;;7.65;;
22652;SDS011;11493;43.344;26.226;2023-04-06T03:53:33;15.93;;;10.00;;
22652;SDS011;11493;43.344;26.226;2023-04-06T03:56:00;11.95;;;8.98;;
22652;SDS011;11493;43.344;26.226;2023-04-06T03:58:30;13.45;;;10.02;;
22652;SDS011;11493;43.344;26.226;2023-04-06T04:00:57;14.35;;;11.15;;
22652;SDS011;11493;43.344;26.226;2023-04-06T04:03:24;11.32;;;9.20;;
22652;SDS011;11493;43.344;26.226;2023-04-06T04:05:54;12.18;;;9.30;;
22652;SDS011;11493;43.344;26.226;2023-04-06T04:08:25;11.95;;;8.43;;
22652;SDS011;11493;43.344;26.226;2023-04-06T04:10:52;10.40;;;9.10;;
22652;SDS011;11493;43.344;26.226;2023-04-06T04:13:19;14.82;;;9.88;;
22652;SDS011;11493;43.344;26.226;2023-04-06T04:15:48;9.13;;;8.10;;
22652;SDS011;11493;43.344;26.226;2023-04-06T04:18:16;9.07;;;8.15;;
22652;SDS011;11493;43.344;26.226;2023-04-06T04:20:43;12.23;;;9.35;;
22652;SDS011;11493;43.344;26.226;2023-04-06T04:23:11;11.85;;;8.80;;
22652;SDS011;11493;43.344;26.226;2023-04-06T04:25:38;12.18;;;9.77;;
22652;SDS011;11493;43.344;26.226;2023-04-06T04:28:05;12.15;;;7.82;;
22652;SDS011;11493;43.344;26.226;2023-04-06T04:30:33;9.38;;;8.35;;
22652;SDS011;11493;43.344;26.226;2023-04-06T04:33:05;12.18;;;8.00;;
22652;SDS011;11493;43.344;26.226;2023-04-06T04:35:32;9.23;;;8.18;;
22652;SDS011;11493;43.344;26.226;2023-04-06T04:37:59;9.07;;;8.18;;
22652;SDS011;11493;43.344;26.226;2023-04-06T04:40:26;12.20;;;9.43;;
22652;SDS011;11493;43.344;26.226;2023-04-06T04:43:02;11.23;;;8.55;;
22652;SDS011;11493;43.344;26.226;2023-04-06T04:45:32;9.85;;;7.32;;
22652;SDS011;11493;43.344;26.226;2023-04-06T04:48:10;12.60;;;9.45;;
22652;SDS011;11493;43.344;26.226;2023-04-06T04:50:49;12.20;;;8.93;;
22652;SDS011;11493;43.344;26.226;2023-04-06T04:53:19;12.65;;;9.18;;
22652;SDS011;11493;43.344;26.226;2023-04-06T04:55:52;13.75;;;9.60;;
22652;SDS011;11493;43.344;26.226;2023-04-06T04:58:19;15.05;;;8.95;;
22652;SDS011;11493;43.344;26.226;2023-04-06T05:00:51;8.65;;;7.82;;
22652;SDS011;11493;43.344;26.226;2023-04-06T05:03:23;10.32;;;8.02;;
22652;SDS011;11493;43.344;26.226;2023-04-06T05:05:58;10.88;;;8.05;;
22652;SDS011;11493;43.344;26.226;2023-04-06T05:08:29;7.95;;;7.25;;
22652;SDS011;11493;43.344;26.226;2023-04-06T05:10:57;12.70;;;7.55;;
22652;SDS011;11493;43.344;26.226;2023-04-06T05:13:25;7.85;;;7.05;;
22652;SDS011;11493;43.344;26.226;2023-04-06T05:15:57;8.80;;;8.00;;
22652;SDS011;11493;43.344;26.226;2023-04-06T05:18:31;9.70;;;7.75;;
22652;SDS011;11493;43.344;26.226;2023-04-06T05:20:59;9.30;;;8.13;;
22652;SDS011;11493;43.344;26.226;2023-04-06T05:23:35;9.27;;;8.18;;
22652;SDS011;11493;43.344;26.226;2023-04-06T05:26:02;9.07;;;8.18;;
22652;SDS011;11493;43.344;26.226;2023-04-06T05:28:30;13.70;;;9.02;;
22652;SDS011;11493;43.344;26.226;2023-04-06T05:30:59;12.05;;;9.20;;
22652;SDS011;11493;43.344;26.226;2023-04-06T05:33:32;13.18;;;9.40;;
22652;SDS011;11493;43.344;26.226;2023-04-06T05:36:04;10.55;;;8.48;;
22652;SDS011;11493;43.344;26.226;2023-04-06T05:38:37;10.52;;;8.27;;
22652;SDS011;11493;43.344;26.226;2023-04-06T05:41:15;8.57;;;7.68;;
22652;SDS011;11493;43.344;26.226;2023-04-06T05:43:42;10.85;;;8.50;;
22652;SDS011;11493;43.344;26.226;2023-04-06T05:46:09;12.40;;;9.65;;
22652;SDS011;11493;43.344;26.226;2023-04-06T05:48:37;15.18;;;8.90;;
22652;SDS011;11493;43.344;26.226;2023-04-06T05:51:04;13.32;;;7.85;;
22652;SDS011;11493;43.344;26.226;2023-04-06T05:53:41;10.35;;;8.77;;
22652;SDS011;11493;43.344;26.226;2023-04-06T05:56:08;11.27;;;8.60;;
22652;SDS011;11493;43.344;26.226;2023-04-06T05:58:36;12.13;;;8.75;;
22652;SDS011;11493;43.344;26.226;2023-04-06T06:01:04;11.52;;;9.38;;
22652;SDS011;11493;43.344;26.226;2023-04-06T06:03:39;13.10;;;10.32;;
22652;SDS011;11493;43.344;26.226;2023-04-06T06:06:06;12.15;;;10.15;;
22652;SDS011;11493;43.344;26.226;2023-04-06T06:08:43;10.25;;;9.23;;
22652;SDS011;11493;43.344;26.226;2023-04-06T06:11:14;9.20;;;8.17;;
22652;SDS011;11493;43.344;26.226;2023-04-06T06:13:41;14.98;;;10.48;;
22652;SDS011;11493;43.344;26.226;2023-04-06T06:16:08;13.48;;;10.07;;
22652;SDS011;11493;43.344;26.226;2023-04-06T06:18:42;12.20;;;9.90;;
22652;SDS011;11493;43.344;26.226;2023-04-06T06:21:09;11.90;;;9.43;;
22652;SDS011;11493;43.344;26.226;2023-04-06T06:23:39;14.95;;;10.95;;
22652;SDS011;11493;43.344;26.226;2023-04-06T06:26:12;15.18;;;10.20;;
22652;SDS011;11493;43.344;26.226;2023-04-06T06:28:40;11.65;;;9.85;;
22652;SDS011;11493;43.344;26.226;2023-04-06T06:31:08;14.07;;;10.43;;
22652;SDS011;11493;43.344;26.226;2023-04-06T06:33:35;10.60;;;9.50;;
22652;SDS011;11493;43.344;26.226;2023-04-06T06:36:03;14.23;;;9.82;;
22652;SDS011;11493;43.344;26.226;2023-04-06T06:38:30;10.80;;;9.60;;
22652;SDS011;11493;43.344;26.226;2023-04-06T06:40:57;11.07;;;9.68;;
22652;SDS011;11493;43.344;26.226;2023-04-06T06:43:28;14.32;;;10.98;;
22652;SDS011;11493;43.344;26.226;2023-04-06T06:45:58;13.25;;;10.35;;
22652;SDS011;11493;43.344;26.226;2023-04-06T06:48:25;14.23;;;10.15;;
22652;SDS011;11493;43.344;26.226;2023-04-06T06:50:53;14.98;;;10.57;;
22652;SDS011;11493;43.344;26.226;2023-04-06T06:53:20;16.48;;;10.90;;
22652;SDS011;11493;43.344;26.226;2023-04-06T06:55:47;13.30;;;9.95;;
22652;SDS011;11493;43.344;26.226;2023-04-06T06:58:17;12.82;;;10.02;;
22652;SDS011;11493;43.344;26.226;2023-04-06T07:00:46;17.05;;;10.27;;
22652;SDS011;11493;43.344;26.226;2023-04-06T07:03:14;13.82;;;10.70;;
22652;SDS011;11493;43.344;26.226;2023-04-06T07:05:45;11.32;;;9.07;;
22652;SDS011;11493;43.344;26.226;2023-04-06T07:08:22;13.43;;;9.65;;
22652;SDS011;11493;43.344;26.226;2023-04-06T07:10:50;12.23;;;10.27;;
22652;SDS011;11493;43.344;26.226;2023-04-06T07:13:19;12.73;;;10.43;;
22652;SDS011;11493;43.344;26.226;2023-04-06T07:15:52;13.20;;;10.98;;
22652;SDS011;11493;43.344;26.226;2023-04-06T07:18:20;16.45;;;10.52;;
22652;SDS011;11493;43.344;26.226;2023-04-06T07:20:48;15.35;;;10.52;;
22652;SDS011;11493;43.344;26.226;2023-04-06T07:23:16;18.10;;;12.02;;
22652;SDS011;11493;43.344;26.226;2023-04-06T07:25:43;14.48;;;10.85;;
22652;SDS011;11493;43.344;26.226;2023-04-06T07:28:11;18.27;;;11.38;;
22652;SDS011;11493;43.344;26.226;2023-04-06T07:30:38;15.95;;;11.40;;
22652;SDS011;11493;43.344;26.226;2023-04-06T07:33:08;20.88;;;13.75;;
22652;SDS011;11493;43.344;26.226;2023-04-06T07:35:35;16.42;;;10.73;;
22652;SDS011;11493;43.344;26.226;2023-04-06T07:38:04;20.52;;;13.35;;
22652;SDS011;11493;43.344;26.226;2023-04-06T07:40:33;25.38;;;15.63;;
22652;SDS011;11493;43.344;26.226;2023-04-06T07:43:00;20.58;;;12.40;;
22652;SDS011;11493;43.344;26.226;2023-04-06T07:45:28;18.55;;;13.02;;
22652;SDS011;11493;43.344;26.226;2023-04-06T07:47:56;15.63;;;9.88;;
22652;SDS011;11493;43.344;26.226;2023-04-06T07:50:26;22.60;;;13.30;;
22652;SDS011;11493;43.344;26.226;2023-04-06T07:52:54;23.05;;;12.63;;
22652;SDS011;11493;43.344;26.226;2023-04-06T07:55:21;17.67;;;10.85;;
22652;SDS011;11493;43.344;26.226;2023-04-06T07:57:48;26.27;;;14.20;;
22652;SDS011;11493;43.344;26.226;2023-04-06T08:00:16;18.77;;;12.18;;
22652;SDS011;11493;43.344;26.226;2023-04-06T08:02:43;19.02;;;12.45;;
22652;SDS011;11493;43.344;26.226;2023-04-06T08:05:10;22.02;;;11.93;;
22652;SDS011;11493;43.344;26.226;2023-04-06T08:07:37;20.42;;;12.23;;
22652;SDS011;11493;43.344;26.226;2023-04-06T08:10:04;15.90;;;10.45;;
22652;SDS011;11493;43.344;26.226;2023-04-06T08:12:32;13.43;;;10.27;;
22652;SDS011;11493;43.344;26.226;2023-04-06T08:15:01;22.73;;;13.23;;
22652;SDS011;11493;43.344;26.226;2023-04-06T08:17:31;19.88;;;11.57;;
22652;SDS011;11493;43.344;26.226;2023-04-06T08:19:58;19.25;;;10.57;;
22652;SDS011;11493;43.344;26.226;2023-04-06T08:22:25;18.38;;;11.18;;
22652;SDS011;11493;43.344;26.226;2023-04-06T08:24:52;21.60;;;12.88;;
22652;SDS011;11493;43.344;26.226;2023-04-06T08:27:19;25.05;;;13.73;;
22652;SDS011;11493;43.344;26.226;2023-04-06T08:29:47;11.07;;;9.48;;
22652;SDS011;11493;43.344;26.226;2023-04-06T08:32:15;14.07;;;10.55;;
22652;SDS011;11493;43.344;26.226;2023-04-06T08:34:42;15.15;;;10.88;;
22652;SDS011;11493;43.344;26.226;2023-04-06T08:37:10;15.73;;;10.60;;
22652;SDS011;11493;43.344;26.226;2023-04-06T08:39:37;14.35;;;10.15;;
22652;SDS011;11493;43.344;26.226;2023-04-06T08:42:04;11.90;;;10.07;;
22652;SDS011;11493;43.344;26.226;2023-04-06T08:44:32;19.90;;;12.32;;
22652;SDS011;11493;43.344;26.226;2023-04-06T08:46:59;15.20;;;11.07;;
22652;SDS011;11493;43.344;26.226;2023-04-06T08:49:27;41.88;;;21.08;;
22652;SDS011;11493;43.344;26.226;2023-04-06T08:51:54;12.35;;;9.35;;
22652;SDS011;11493;43.344;26.226;2023-04-06T08:54:23;12.65;;;9.50;;
22652;SDS011;11493;43.344;26.226;2023-04-06T08:56:51;13.50;;;9.85;;
22652;SDS011;11493;43.344;26.226;2023-04-06T08:59:20;12.35;;;9.02;;
22652;SDS011;11493;43.344;26.226;2023-04-06T09:01:47;11.95;;;8.90;;
22652;SDS011;11493;43.344;26.226;2023-04-06T09:04:24;19.52;;;13.10;;
22652;SDS011;11493;43.344;26.226;2023-04-06T09:06:53;11.65;;;8.68;;
22652;SDS011;11493;43.344;26.226;2023-04-06T09:09:20;16.50;;;9.30;;
22652;SDS011;11493;43.344;26.226;2023-04-06T09:11:50;13.75;;;8.98;;
22652;SDS011;11493;43.344;26.226;2023-04-06T09:14:52;15.05;;;10.05;;
22652;SDS011;11493;43.344;26.226;2023-04-06T09:17:19;14.95;;;9.00;;
22652;SDS011;11493;43.344;26.226;2023-04-06T09:19:48;18.08;;;11.27;;
22652;SDS011;11493;43.344;26.226;2023-04-06T09:22:15;11.68;;;9.45;;
22652;SDS011;11493;43.344;26.226;2023-04-06T09:24:53;13.23;;;10.18;;
22652;SDS011;11493;43.344;26.226;2023-04-06T09:27:34;11.75;;;8.02;;
22652;SDS011;11493;43.344;26.226;2023-04-06T09:30:09;12.23;;;8.73;;
22652;SDS011;11493;43.344;26.226;2023-04-06T09:32:57;11.55;;;8.93;;
22652;SDS011;11493;43.344;26.226;2023-04-06T09:35:26;17.40;;;9.93;;
22652;SDS011;11493;43.344;26.226;2023-04-06T09:37:55;10.25;;;8.27;;
22652;SDS011;11493;43.344;26.226;2023-04-06T09:40:22;11.52;;;8.85;;
22652;SDS011;11493;43.344;26.226;2023-04-06T09:42:50;11.40;;;8.75;;
22652;SDS011;11493;43.344;26.226;2023-04-06T09:45:24;14.13;;;9.38;;
22652;SDS011;11493;43.344;26.226;2023-04-06T09:47:53;15.93;;;10.40;;
22652;SDS011;11493;43.344;26.226;2023-04-06T09:50:23;16.15;;;12.70;;
22652;SDS011;11493;43.344;26.226;2023-04-06T09:52:53;15.73;;;10.32;;
22652;SDS011;11493;43.344;26.226;2023-04-06T09:55:25;14.77;;;9.85;;
22652;SDS011;11493;43.344;26.226;2023-04-06T09:58:15;14.63;;;9.13;;
22652;SDS011;11493;43.344;26.226;2023-04-06T10:09:08;11.85;;;7.65;;
22652;SDS011;11493;43.344;26.226;2023-04-06T10:11:36;11.73;;;9.38;;
22652;SDS011;11493;43.344;26.226;2023-04-06T10:14:03;11.90;;;7.55;;
22652;SDS011;11493;43.344;26.226;2023-04-06T10:16:30;20.42;;;8.50;;
22652;SDS011;11493;43.344;26.226;2023-04-06T10:19:01;8.90;;;7.93;;
22652;SDS011;11493;43.344;26.226;2023-04-06T10:21:36;10.77;;;7.80;;
22652;SDS011;11493;43.344;26.226;2023-04-06T10:24:07;11.20;;;8.50;;
22652;SDS011;11493;43.344;26.226;2023-04-06T10:26:39;13.98;;;7.50;;
22652;SDS011;11493;43.344;26.226;2023-04-06T10:29:07;15.52;;;8.63;;
22652;SDS011;11493;43.344;26.226;2023-04-06T10:31:39;10.45;;;7.95;;
22652;SDS011;11493;43.344;26.226;2023-04-06T10:34:09;9.68;;;7.15;;
22652;SDS011;11493;43.344;26.226;2023-04-06T10:36:36;7.70;;;6.38;;
22652;SDS011;11493;43.344;26.226;2023-04-06T10:39:05;9.18;;;8.25;;
22652;SDS011;11493;43.344;26.226;2023-04-06T10:44:01;12.63;;;6.50;;
22652;SDS011;11493;43.344;26.226;2023-04-06T10:46:29;7.45;;;6.65;;
22652;SDS011;11493;43.344;26.226;2023-04-06T10:48:57;10.88;;;7.55;;
22652;SDS011;11493;43.344;26.226;2023-04-06T10:51:27;15.82;;;8.07;;
22652;SDS011;11493;43.344;26.226;2023-04-06T10:53:55;11.70;;;8.48;;
22652;SDS011;11493;43.344;26.226;2023-04-06T10:56:24;8.52;;;6.85;;
22652;SDS011;11493;43.344;26.226;2023-04-06T10:58:54;14.00;;;8.43;;
22652;SDS011;11493;43.344;26.226;2023-04-06T11:01:25;11.73;;;8.05;;
22652;SDS011;11493;43.344;26.226;2023-04-06T11:03:54;11.93;;;8.07;;
22652;SDS011;11493;43.344;26.226;2023-04-06T11:06:27;9.57;;;7.45;;
22652;SDS011;11493;43.344;26.226;2023-04-06T11:08:56;13.18;;;8.00;;
22652;SDS011;11493;43.344;26.226;2023-04-06T11:11:24;10.35;;;7.20;;
22652;SDS011;11493;43.344;26.226;2023-04-06T11:13:57;8.13;;;6.28;;
22652;SDS011;11493;43.344;26.226;2023-04-06T11:16:27;7.75;;;6.80;;
22652;SDS011;11493;43.344;26.226;2023-04-06T11:18:59;6.47;;;5.82;;
22652;SDS011;11493;43.344;26.226;2023-04-06T11:24:10;10.00;;;7.95;;
22652;SDS011;11493;43.344;26.226;2023-04-06T11:29:21;10.98;;;6.75;;
22652;SDS011;11493;43.344;26.226;2023-04-06T11:31:53;9.48;;;6.55;;
22652;SDS011;11493;43.344;26.226;2023-04-06T11:34:28;6.78;;;6.00;;
22652;SDS011;11493;43.344;26.226;2023-04-06T11:36:57;9.32;;;7.10;;
22652;SDS011;11493;43.344;26.226;2023-04-06T11:39:26;13.82;;;9.13;;
22652;SDS011;11493;43.344;26.226;2023-04-06T11:41:57;9.20;;;6.28;;
22652;SDS011;11493;43.344;26.226;2023-04-06T11:44:35;6.70;;;5.88;;
22652;SDS011;11493;43.344;26.226;2023-04-06T11:47:02;8.63;;;6.20;;
22652;SDS011;11493;43.344;26.226;2023-04-06T11:49:31;5.38;;;4.88;;
22652;SDS011;11493;43.344;26.226;2023-04-06T11:51:59;6.43;;;5.18;;
22652;SDS011;11493;43.344;26.226;2023-04-06T11:54:33;5.88;;;5.13;;
22652;SDS011;11493;43.344;26.226;2023-04-06T11:57:02;5.45;;;4.80;;
22652;SDS011;11493;43.344;26.226;2023-04-06T11:59:30;7.43;;;5.75;;
22652;SDS011;11493;43.344;26.226;2023-04-06T12:01:58;10.82;;;6.07;;
22652;SDS011;11493;43.344;26.226;2023-04-06T12:04:25;10.65;;;6.63;;
22652;SDS011;11493;43.344;26.226;2023-04-06T12:06:52;8.25;;;5.72;;
22652;SDS011;11493;43.344;26.226;2023-04-06T12:09:20;5.97;;;5.38;;
22652;SDS011;11493;43.344;26.226;2023-04-06T12:11:47;7.28;;;5.28;;
22652;SDS011;11493;43.344;26.226;2023-04-06T12:14:14;7.88;;;5.10;;
22652;SDS011;11493;43.344;26.226;2023-04-06T12:16:41;10.85;;;7.70;;
22652;SDS011;11493;43.344;26.226;2023-04-06T12:19:08;7.25;;;5.68;;
22652;SDS011;11493;43.344;26.226;2023-04-06T12:21:36;8.35;;;5.85;;
22652;SDS011;11493;43.344;26.226;2023-04-06T12:24:07;7.80;;;5.85;;
22652;SDS011;11493;43.344;26.226;2023-04-06T12:26:34;9.00;;;6.78;;
22652;SDS011;11493;43.344;26.226;2023-04-06T12:29:03;10.55;;;8.07;;
22652;SDS011;11493;43.344;26.226;2023-04-06T12:31:36;14.80;;;8.15;;
22652;SDS011;11493;43.344;26.226;2023-04-06T12:34:05;8.20;;;7.15;;
22652;SDS011;11493;43.344;26.226;2023-04-06T12:36:33;11.07;;;7.55;;
22652;SDS011;11493;43.344;26.226;2023-04-06T12:39:01;12.48;;;8.18;;
22652;SDS011;11493;43.344;26.226;2023-04-06T12:41:29;11.75;;;6.93;;
22652;SDS011;11493;43.344;26.226;2023-04-06T12:43:56;6.88;;;6.18;;
22652;SDS011;11493;43.344;26.226;2023-04-06T12:46:23;7.80;;;5.50;;
22652;SDS011;11493;43.344;26.226;2023-04-06T12:48:50;13.52;;;5.70;;
22652;SDS011;11493;43.344;26.226;2023-04-06T12:51:20;8.85;;;5.43;;
22652;SDS011;11493;43.344;26.226;2023-04-06T12:53:48;7.65;;;6.00;;
22652;SDS011;11493;43.344;26.226;2023-04-06T12:56:16;9.18;;;6.50;;
22652;SDS011;11493;43.344;26.226;2023-04-06T12:58:44;8.93;;;6.05;;
22652;SDS011;11493;43.344;26.226;2023-04-06T13:01:12;9.07;;;5.78;;
22652;SDS011;11493;43.344;26.226;2023-04-06T13:03:40;8.00;;;5.85;;
22652;SDS011;11493;43.344;26.226;2023-04-06T13:06:07;7.55;;;5.82;;
22652;SDS011;11493;43.344;26.226;2023-04-06T13:08:35;9.25;;;6.63;;
22652;SDS011;11493;43.344;26.226;2023-04-06T13:11:05;12.25;;;6.97;;
22652;SDS011;11493;43.344;26.226;2023-04-06T13:13:34;15.35;;;7.75;;
22652;SDS011;11493;43.344;26.226;2023-04-06T13:16:03;5.72;;;5.22;;
22652;SDS011;11493;43.344;26.226;2023-04-06T13:18:32;7.07;;;5.30;;
22652;SDS011;11493;43.344;26.226;2023-04-06T13:21:00;6.47;;;5.88;;
22652;SDS011;11493;43.344;26.226;2023-04-06T13:23:27;8.20;;;6.20;;
22652;SDS011;11493;43.344;26.226;2023-04-06T13:25:58;8.05;;;5.50;;
22652;SDS011;11493;43.344;26.226;2023-04-06T13:28:27;7.95;;;5.40;;
22652;SDS011;11493;43.344;26.226;2023-04-06T13:30:54;7.93;;;5.32;;
22652;SDS011;11493;43.344;26.226;2023-04-06T13:33:23;9.00;;;5.35;;
22652;SDS011;11493;43.344;26.226;2023-04-06T13:35:50;6.20;;;5.03;;
22652;SDS011;11493;43.344;26.226;2023-04-06T13:38:17;8.00;;;5.63;;
22652;SDS011;11493;43.344;26.226;2023-04-06T13:40:44;13.65;;;8.35;;
22652;SDS011;11493;43.344;26.226;2023-04-06T13:43:11;12.52;;;8.70;;
22652;SDS011;11493;43.344;26.226;2023-04-06T13:45:39;16.98;;;9.30;;
22652;SDS011;11493;43.344;26.226;2023-04-06T13:48:06;12.10;;;7.95;;
22652;SDS011;11493;43.344;26.226;2023-04-06T13:50:33;11.43;;;7.43;;
22652;SDS011;11493;43.344;26.226;2023-04-06T13:53:01;15.07;;;6.45;;
22652;SDS011;11493;43.344;26.226;2023-04-06T13:55:28;12.05;;;5.40;;
22652;SDS011;11493;43.344;26.226;2023-04-06T13:57:57;11.55;;;6.65;;
22652;SDS011;11493;43.344;26.226;2023-04-06T14:00:24;25.25;;;10.95;;
22652;SDS011;11493;43.344;26.226;2023-04-06T14:02:53;7.50;;;4.88;;
22652;SDS011;11493;43.344;26.226;2023-04-06T14:05:21;7.47;;;5.68;;
22652;SDS011;11493;43.344;26.226;2023-04-06T14:07:50;7.35;;;5.32;;
22652;SDS011;11493;43.344;26.226;2023-04-06T14:10:17;11.48;;;7.85;;
22652;SDS011;11493;43.344;26.226;2023-04-06T14:12:47;11.55;;;7.45;;
22652;SDS011;11493;43.344;26.226;2023-04-06T14:15:14;9.48;;;6.82;;
22652;SDS011;11493;43.344;26.226;2023-04-06T14:17:41;11.75;;;7.55;;
22652;SDS011;11493;43.344;26.226;2023-04-06T14:20:09;6.90;;;6.05;;
22652;SDS011;11493;43.344;26.226;2023-04-06T14:22:41;8.38;;;7.07;;
22652;SDS011;11493;43.344;26.226;2023-04-06T14:25:09;9.75;;;6.57;;
22652;SDS011;11493;43.344;26.226;2023-04-06T14:27:42;8.00;;;7.05;;
22652;SDS011;11493;43.344;26.226;2023-04-06T14:30:10;10.07;;;6.55;;
22652;SDS011;11493;43.344;26.226;2023-04-06T14:32:38;13.05;;;8.35;;
22652;SDS011;11493;43.344;26.226;2023-04-06T14:35:06;22.48;;;11.35;;
22652;SDS011;11493;43.344;26.226;2023-04-06T14:37:34;11.65;;;7.90;;
22652;SDS011;11493;43.344;26.226;2023-04-06T14:40:01;26.67;;;16.55;;
22652;SDS011;11493;43.344;26.226;2023-04-06T14:42:29;12.35;;;8.85;;
22652;SDS011;11493;43.344;26.226;2023-04-06T14:44:57;17.15;;;11.38;;
22652;SDS011;11493;43.344;26.226;2023-04-06T14:47:24;10.68;;;7.65;;
22652;SDS011;11493;43.344;26.226;2023-04-06T14:49:52;11.23;;;7.93;;
22652;SDS011;11493;43.344;26.226;2023-04-06T14:52:19;15.52;;;9.75;;
22652;SDS011;11493;43.344;26.226;2023-04-06T14:54:47;11.68;;;8.50;;